createdAt,value
2019-04-03T00:15:51.288Z,6.73
2019-04-03T00:30:52.959Z,6.46
2019-04-03T00:45:54.021Z,6.27
2019-04-03T01:00:54.737Z,6.06
2019-04-03T01:15:50.522Z,5.88
2019-04-03T01:30:54.536Z,5.65
2019-04-03T01:45:51.772Z,5.48
2019-04-03T02:00:52.706Z,5.39
2019-04-03T02:15:52.475Z,5.37
2019-04-03T02:30:50.554Z,5.51
2019-04-03T02:45:51.414Z,5.49
2019-04-03T03:00:57.496Z,5.53
2019-04-03T03:15:51.214Z,5.48
2019-04-03T03:30:59.673Z,5.21
2019-04-03T03:45:54.868Z,4.80
2019-04-03T04:00:52.960Z,4.99
2019-04-03T04:15:51.622Z,5.73
2019-04-03T04:30:57.403Z,6.24
2019-04-03T04:45:53.427Z,7.45
2019-04-03T05:00:53.321Z,7.70
2019-04-03T05:15:54.672Z,7.80
2019-04-03T05:30:51.150Z,8.39
2019-04-03T05:45:53.587Z,8.63
2019-04-03T06:01:02.870Z,9.11
2019-04-03T06:15:52.979Z,9.91
2019-04-03T06:30:51.637Z,10.39
2019-04-03T06:45:51.785Z,9.86
2019-04-03T07:00:54.112Z,10.47
2019-04-03T07:15:55.953Z,11.43
2019-04-03T07:30:53.589Z,11.79
2019-04-03T07:45:51.903Z,12.21
2019-04-03T08:00:55.725Z,12.72
2019-04-03T08:15:50.793Z,13.54
2019-04-03T08:30:50.666Z,14.49
2019-04-03T08:45:51.019Z,14.65
2019-04-03T09:00:51.073Z,15.28
2019-04-03T09:15:51.119Z,15.38
2019-04-03T09:30:53.818Z,15.84
2019-04-03T09:45:51.633Z,16.12
2019-04-03T10:00:54.245Z,16.80
2019-04-03T10:15:51.096Z,16.52
2019-04-03T10:30:52.835Z,16.49
2019-04-03T10:45:50.513Z,16.40
2019-04-03T11:00:50.512Z,16.48
2019-04-03T11:15:54.676Z,16.24
2019-04-03T11:30:53.030Z,16.57
2019-04-03T11:45:50.563Z,16.35
2019-04-03T12:00:52.433Z,16.17
2019-04-03T12:15:53.519Z,16.09
2019-04-03T12:30:50.537Z,15.93
2019-04-03T12:45:51.229Z,15.49
2019-04-03T13:00:51.153Z,15.40
2019-04-03T13:15:51.117Z,15.48
2019-04-03T13:30:50.648Z,15.67
2019-04-03T13:45:51.275Z,15.81
2019-04-03T14:00:59.025Z,15.98
2019-04-03T14:15:50.374Z,15.98
2019-04-03T14:30:51.839Z,15.71
2019-04-03T14:45:51.688Z,15.37
2019-04-03T15:00:54.310Z,15.19
2019-04-03T15:15:51.559Z,14.98
2019-04-03T15:30:51.018Z,14.54
2019-04-03T15:45:58.056Z,14.27
2019-04-03T16:00:50.497Z,13.91
2019-04-03T16:15:55.225Z,13.38
2019-04-03T16:30:56.984Z,13.01
2019-04-03T16:45:51.315Z,12.55
2019-04-03T17:00:51.330Z,12.07
2019-04-03T17:15:57.362Z,11.54
2019-04-03T17:30:52.710Z,11.11
2019-04-03T18:00:52.074Z,10.57
2019-04-03T18:15:51.150Z,10.55
2019-04-03T18:30:51.344Z,10.29
2019-04-03T18:45:55.889Z,10.08
2019-04-03T19:00:53.989Z,9.88
2019-04-03T19:15:57.130Z,9.56
2019-04-03T19:30:50.493Z,9.21
2019-04-03T19:45:57.870Z,8.91
2019-04-03T20:00:53.788Z,8.77
2019-04-03T20:15:53.823Z,8.62
2019-04-03T20:30:50.671Z,8.58
2019-04-03T20:45:51.072Z,8.41
2019-04-03T21:01:06.134Z,8.33
2019-04-03T21:30:57.768Z,8.01
2019-04-03T21:45:51.190Z,7.87
2019-04-03T22:15:57.295Z,7.60
2019-04-03T22:30:58.233Z,7.52
2019-04-03T22:45:51.783Z,7.52
2019-04-03T23:00:57.244Z,7.39
2019-04-03T23:15:55.991Z,7.31
2019-04-03T23:30:50.976Z,7.28
2019-04-03T23:45:50.691Z,6.90
